createdAt,value
2022-10-13T00:01:24.145Z,19.40
2022-10-13T00:03:52.825Z,16.10
2022-10-13T00:06:23.466Z,17.53
2022-10-13T00:08:53.622Z,16.33
2022-10-13T00:11:25.793Z,18.93
2022-10-13T00:13:56.291Z,20.50
2022-10-13T00:16:26.677Z,22.27
2022-10-13T00:18:56.846Z,18.80
2022-10-13T00:21:30.886Z,20.30
2022-10-13T00:24:00.735Z,19.30
2022-10-13T00:26:30.444Z,18.70
2022-10-13T00:28:59.741Z,22.53
2022-10-13T00:31:32.696Z,17.60
2022-10-13T00:34:02.271Z,18.03
2022-10-13T00:36:32.527Z,19.93
2022-10-13T00:39:02.896Z,20.07
2022-10-13T00:41:33.259Z,19.50
2022-10-13T00:44:04.337Z,20.33
2022-10-13T00:46:34.492Z,21.53
2022-10-13T00:49:09.252Z,19.13
2022-10-13T00:51:43.108Z,21.80
2022-10-13T00:54:14.526Z,22.70
2022-10-13T00:56:47.029Z,24.57
2022-10-13T00:59:23.169Z,26.60
2022-10-13T01:01:55.449Z,23.17
2022-10-13T01:04:29.653Z,20.13
2022-10-13T01:07:03.060Z,20.80
2022-10-13T01:09:37.767Z,18.30
2022-10-13T01:12:22.449Z,17.67
2022-10-13T01:14:57.283Z,20.50
2022-10-13T01:17:38.800Z,20.53
2022-10-13T01:20:46.744Z,22.40
2022-10-13T01:23:57.627Z,23.50
2022-10-13T01:26:56.172Z,20.80
2022-10-13T01:30:06.433Z,20.37
2022-10-13T01:32:58.082Z,20.33
2022-10-13T01:35:35.422Z,17.17
2022-10-13T01:38:10.309Z,17.93
2022-10-13T01:40:44.315Z,22.23
2022-10-13T01:43:18.260Z,17.70
2022-10-13T01:45:55.023Z,14.73
2022-10-13T01:48:24.273Z,15.73
2022-10-13T01:50:54.355Z,21.53
2022-10-13T01:53:24.086Z,17.83
2022-10-13T01:55:53.555Z,24.87
2022-10-13T01:58:23.083Z,16.77
2022-10-13T02:01:04.569Z,23.63
2022-10-13T02:03:46.879Z,15.67
2022-10-13T02:06:22.544Z,15.83
2022-10-13T02:08:59.961Z,16.73
2022-10-13T02:11:31.646Z,14.73
2022-10-13T02:14:08.884Z,17.83
2022-10-13T02:16:43.661Z,16.43
2022-10-13T02:19:16.179Z,15.53
2022-10-13T02:21:45.660Z,14.00
2022-10-13T02:24:15.361Z,18.83
2022-10-13T02:26:44.076Z,19.30
2022-10-13T02:29:17.624Z,16.30
2022-10-13T02:31:50.090Z,15.73
2022-10-13T02:34:20.918Z,14.23
2022-10-13T02:36:49.431Z,15.63
2022-10-13T02:39:21.148Z,15.07
2022-10-13T02:41:50.844Z,17.37
2022-10-13T02:44:21.077Z,17.67
2022-10-13T02:46:50.846Z,15.97
2022-10-13T02:49:19.036Z,16.63
2022-10-13T02:51:49.025Z,13.37
2022-10-13T02:54:19.854Z,15.23
2022-10-13T02:56:53.539Z,16.50
2022-10-13T02:59:23.347Z,18.47
2022-10-13T03:01:53.503Z,17.90
2022-10-13T03:04:21.768Z,19.90
2022-10-13T03:06:50.286Z,17.77
2022-10-13T03:09:19.050Z,22.47
2022-10-13T03:11:47.302Z,28.30
2022-10-13T03:14:23.109Z,25.27
2022-10-13T03:17:03.854Z,25.17
2022-10-13T03:19:42.958Z,21.33
2022-10-13T03:22:16.306Z,20.10
2022-10-13T03:24:45.044Z,21.20
2022-10-13T03:27:16.300Z,26.00
2022-10-13T03:29:44.780Z,24.77
2022-10-13T03:32:16.603Z,30.33
2022-10-13T03:34:46.981Z,38.40
2022-10-13T03:37:15.948Z,38.67
2022-10-13T03:39:44.154Z,35.57
2022-10-13T03:42:18.344Z,34.20
2022-10-13T03:44:47.000Z,34.60
2022-10-13T03:47:20.742Z,33.67
2022-10-13T03:49:50.399Z,31.33
2022-10-13T03:52:19.219Z,27.07
2022-10-13T03:54:47.576Z,29.03
2022-10-13T03:57:16.782Z,29.30
2022-10-13T03:59:49.287Z,29.83
2022-10-13T04:02:24.570Z,30.60
2022-10-13T04:04:54.555Z,31.00
2022-10-13T04:07:58.488Z,35.90
2022-10-13T04:10:28.286Z,35.33
2022-10-13T04:12:57.731Z,40.97
2022-10-13T04:15:25.904Z,38.13
2022-10-13T04:17:55.703Z,36.83
2022-10-13T04:20:26.902Z,37.57
2022-10-13T04:22:55.163Z,38.40
2022-10-13T04:25:24.985Z,40.23
2022-10-13T04:27:54.323Z,40.60
2022-10-13T04:30:22.547Z,45.80
2022-10-13T04:32:55.943Z,47.33
2022-10-13T04:35:25.600Z,41.17
2022-10-13T04:37:55.149Z,49.90
2022-10-13T04:40:29.441Z,47.60
2022-10-13T04:42:58.034Z,52.10
2022-10-13T04:45:26.655Z,53.43
2022-10-13T04:47:56.226Z,50.90
2022-10-13T04:50:29.430Z,42.00
2022-10-13T04:52:57.659Z,40.20
2022-10-13T04:55:27.697Z,50.03
2022-10-13T04:57:56.269Z,49.83
2022-10-13T05:00:24.561Z,47.47
2022-10-13T05:02:54.156Z,43.40
2022-10-13T05:05:22.346Z,49.00
2022-10-13T05:08:52.394Z,46.07
2022-10-13T05:11:35.442Z,44.33
2022-10-13T05:14:05.491Z,40.97
2022-10-13T05:16:35.070Z,46.00
2022-10-13T05:19:03.758Z,59.70
2022-10-13T05:21:43.064Z,54.97
2022-10-13T05:24:21.073Z,41.43
2022-10-13T05:27:02.559Z,41.93
2022-10-13T05:29:39.840Z,60.13
2022-10-13T05:48:02.961Z,32.63
2022-10-13T05:50:32.802Z,33.37
2022-10-13T05:53:01.950Z,34.70
2022-10-13T05:55:38.943Z,30.03
2022-10-13T05:58:23.615Z,29.33
2022-10-13T06:01:12.568Z,25.93
2022-10-13T06:03:47.935Z,25.80
2022-10-13T06:06:35.562Z,24.37
2022-10-13T06:09:04.158Z,24.47
2022-10-13T06:11:32.477Z,26.70
2022-10-13T06:14:06.331Z,30.37
2022-10-13T06:16:37.548Z,30.47
2022-10-13T06:19:07.565Z,29.67
2022-10-13T06:21:36.254Z,35.00
2022-10-13T06:24:08.956Z,35.77
2022-10-13T06:26:37.168Z,34.83
2022-10-13T06:29:07.441Z,40.73
2022-10-13T06:31:37.296Z,39.70
2022-10-13T06:34:13.301Z,39.67
2022-10-13T06:37:02.897Z,36.47
2022-10-13T06:39:36.350Z,39.23
2022-10-13T06:42:30.632Z,40.30
2022-10-13T06:44:59.086Z,37.03
2022-10-13T06:47:27.578Z,44.67
2022-10-13T06:49:57.236Z,48.77
2022-10-13T06:52:25.490Z,38.07
2022-10-13T06:55:03.103Z,35.13
2022-10-13T06:57:53.939Z,34.40
2022-10-13T07:00:59.114Z,33.23
2022-10-13T07:03:32.341Z,34.50
2022-10-13T07:06:03.768Z,27.23
2022-10-13T07:08:33.323Z,33.90
2022-10-13T07:11:08.709Z,39.97
2022-10-13T07:14:13.586Z,37.60
2022-10-13T07:37:17.523Z,38.77
2022-10-13T07:46:20.917Z,45.77
2022-10-13T07:48:49.223Z,41.77
2022-10-13T07:51:29.564Z,39.03
2022-10-13T07:54:11.502Z,40.97
2022-10-13T07:56:40.107Z,39.43
2022-10-13T07:59:27.029Z,32.20
2022-10-13T08:01:55.295Z,35.67
2022-10-13T08:04:34.073Z,37.43
2022-10-13T08:07:09.355Z,32.23
2022-10-13T08:16:15.145Z,30.83
2022-10-13T08:19:04.871Z,24.47
2022-10-13T08:22:35.668Z,27.77
2022-10-13T08:32:11.559Z,26.27
2022-10-13T08:34:41.541Z,22.90
2022-10-13T08:37:18.497Z,20.30
2022-10-13T08:39:54.707Z,17.97
2022-10-13T08:42:24.766Z,18.33
2022-10-13T08:45:40.298Z,16.80
2022-10-13T08:48:01.626Z,15.10
2022-10-13T08:50:35.795Z,16.43
2022-10-13T08:53:12.884Z,15.53
2022-10-13T08:55:44.790Z,17.13
2022-10-13T08:58:16.378Z,15.13
2022-10-13T09:00:45.907Z,18.40
2022-10-13T09:03:27.766Z,18.00
2022-10-13T09:06:12.582Z,16.33
2022-10-13T09:08:46.747Z,16.83
2022-10-13T09:11:15.181Z,18.83
2022-10-13T09:13:45.816Z,15.33
2022-10-13T09:16:28.059Z,19.73
2022-10-13T09:19:30.764Z,18.47
2022-10-13T09:22:22.128Z,18.00
2022-10-13T09:25:38.256Z,18.57
2022-10-13T09:28:58.729Z,19.10
2022-10-13T09:34:37.197Z,18.93
2022-10-13T09:37:23.775Z,14.50
2022-10-13T09:40:03.547Z,17.20
2022-10-13T09:42:34.653Z,21.80
2022-10-13T09:45:13.603Z,16.63
2022-10-13T09:47:42.890Z,15.47
2022-10-13T09:50:21.044Z,16.47
2022-10-13T09:52:52.802Z,14.07
2022-10-13T09:55:33.085Z,14.07
2022-10-13T10:12:05.168Z,17.87
2022-10-13T10:14:36.263Z,9.37
2022-10-13T10:17:46.298Z,12.97
2022-10-13T10:24:16.500Z,9.60
2022-10-13T10:26:54.375Z,11.83
2022-10-13T10:30:05.548Z,10.43
2022-10-13T10:32:59.770Z,11.63
2022-10-13T10:36:04.589Z,12.80
2022-10-13T10:45:56.666Z,13.60
2022-10-13T10:51:12.864Z,10.93
2022-10-13T10:56:21.775Z,13.50
2022-10-13T10:58:58.896Z,11.37
2022-10-13T11:02:01.097Z,11.17
2022-10-13T11:05:03.586Z,13.50
2022-10-13T11:08:21.253Z,14.60
2022-10-13T11:12:05.563Z,14.83
2022-10-13T11:19:27.486Z,12.60
2022-10-13T11:22:39.371Z,14.80
2022-10-13T11:25:39.574Z,18.40
2022-10-13T11:28:42.551Z,13.00
2022-10-13T11:35:24.851Z,15.67
2022-10-13T11:41:19.853Z,15.77
2022-10-13T11:44:20.640Z,15.40
2022-10-13T11:50:32.915Z,19.53
2022-10-13T11:56:39.743Z,15.10
2022-10-13T11:59:28.758Z,14.93
2022-10-13T12:02:11.297Z,18.07
2022-10-13T12:09:01.007Z,16.20
2022-10-13T12:12:33.466Z,12.83
2022-10-13T12:18:41.051Z,10.33
2022-10-13T12:21:20.008Z,12.33
2022-10-13T12:27:59.568Z,10.27
2022-10-13T12:30:43.060Z,36.33
2022-10-13T12:33:38.135Z,11.03
2022-10-13T12:36:39.353Z,15.90
2022-10-13T12:46:22.944Z,9.43
2022-10-13T12:52:25.820Z,14.83
2022-10-13T12:55:38.952Z,10.30
2022-10-13T13:02:11.544Z,9.40
2022-10-13T13:04:54.331Z,11.87
2022-10-13T13:08:19.920Z,11.83
2022-10-13T13:15:02.507Z,8.87
2022-10-13T13:18:14.411Z,10.53
2022-10-13T13:20:45.976Z,10.93
2022-10-13T13:23:15.979Z,9.67
2022-10-13T13:25:59.916Z,12.97
2022-10-13T13:35:13.149Z,10.90
2022-10-13T13:37:48.981Z,10.10
2022-10-13T13:46:52.345Z,13.57
2022-10-13T13:53:20.517Z,11.37
2022-10-13T14:06:19.093Z,13.03
2022-10-13T14:08:48.910Z,14.03
2022-10-13T14:11:17.913Z,12.07
2022-10-13T14:17:42.453Z,18.77
2022-10-13T14:20:13.836Z,11.23
2022-10-13T14:41:07.527Z,11.53
2022-10-13T14:44:06.154Z,13.47
2022-10-13T14:50:02.720Z,13.43
2022-10-13T14:52:33.221Z,13.07
2022-10-13T14:55:01.872Z,14.67
2022-10-13T14:57:58.086Z,15.50
2022-10-13T15:00:50.377Z,14.47
2022-10-13T15:07:27.286Z,18.47
2022-10-13T15:10:08.381Z,16.17
2022-10-13T15:12:44.445Z,22.40
2022-10-13T15:15:25.690Z,16.13
2022-10-13T15:17:59.459Z,12.77
2022-10-13T15:20:37.941Z,14.77
2022-10-13T15:23:12.581Z,11.57
2022-10-13T15:25:50.318Z,13.57
2022-10-13T15:31:44.855Z,13.97
2022-10-13T15:34:59.989Z,15.43
2022-10-13T15:45:26.149Z,13.50
2022-10-13T15:47:59.983Z,14.20
2022-10-13T15:50:30.825Z,15.43
2022-10-13T15:53:32.320Z,16.80
2022-10-13T15:56:04.170Z,19.60
2022-10-13T16:03:20.707Z,13.77
2022-10-13T16:05:52.853Z,13.70
2022-10-13T16:08:23.474Z,17.13
2022-10-13T16:11:21.467Z,16.50
2022-10-13T16:17:51.576Z,19.87
2022-10-13T16:20:57.772Z,18.00
2022-10-13T16:23:29.258Z,17.47
2022-10-13T16:26:15.033Z,19.53
2022-10-13T16:29:29.627Z,20.97
2022-10-13T16:36:12.591Z,17.37
2022-10-13T16:39:01.400Z,17.50
2022-10-13T16:42:11.964Z,15.67
2022-10-13T16:44:54.192Z,19.53
2022-10-13T16:47:25.431Z,19.17
2022-10-13T16:49:54.617Z,15.50
2022-10-13T16:52:28.325Z,18.47
2022-10-13T16:55:13.327Z,17.60
2022-10-13T16:57:57.497Z,17.00
2022-10-13T17:00:27.691Z,15.90
2022-10-13T17:02:58.268Z,20.63
2022-10-13T17:05:27.738Z,20.13
2022-10-13T17:11:20.459Z,16.37
2022-10-13T17:13:59.168Z,23.53
2022-10-13T17:16:41.838Z,18.20
2022-10-13T17:19:12.010Z,16.23
2022-10-13T17:21:41.475Z,16.97
2022-10-13T17:24:11.256Z,21.13
2022-10-13T17:30:22.176Z,19.63
2022-10-13T17:32:52.568Z,18.53
2022-10-13T17:35:21.040Z,19.80
2022-10-13T17:37:55.476Z,20.43
2022-10-13T17:40:44.043Z,20.93
2022-10-13T17:44:00.538Z,17.80
2022-10-13T17:46:38.318Z,19.43
2022-10-13T17:49:20.731Z,18.17
2022-10-13T17:51:53.935Z,19.63
2022-10-13T17:54:25.030Z,22.00
2022-10-13T17:57:04.911Z,17.27
2022-10-13T18:06:15.411Z,21.93
2022-10-13T18:08:47.947Z,26.77
2022-10-13T18:11:23.021Z,25.87
2022-10-13T18:13:52.245Z,20.23
2022-10-13T18:16:23.172Z,21.77
2022-10-13T18:19:09.256Z,22.90
2022-10-13T18:21:37.855Z,20.57
2022-10-13T18:24:29.781Z,28.23
2022-10-13T18:27:24.638Z,19.80
2022-10-13T18:33:54.070Z,20.63
2022-10-13T18:36:31.247Z,20.80
2022-10-13T18:39:09.973Z,22.97
2022-10-13T18:41:40.915Z,23.57
2022-10-13T18:44:35.241Z,22.17
2022-10-13T18:47:07.266Z,25.30
2022-10-13T18:49:37.643Z,29.93
2022-10-13T18:52:19.892Z,23.40
2022-10-13T18:54:50.777Z,28.23
2022-10-13T18:57:43.017Z,23.97
2022-10-13T19:07:38.239Z,26.27
2022-10-13T19:10:13.222Z,26.23
2022-10-13T19:12:53.417Z,25.77
2022-10-13T19:15:33.399Z,27.53
2022-10-13T19:18:08.322Z,25.97
2022-10-13T19:20:46.065Z,23.70
2022-10-13T19:23:18.285Z,23.33
2022-10-13T19:26:00.933Z,20.90
2022-10-13T19:28:31.480Z,21.30
2022-10-13T19:31:09.876Z,38.03
2022-10-13T19:33:47.164Z,27.63
2022-10-13T19:36:23.290Z,24.87
2022-10-13T19:38:53.214Z,26.23
2022-10-13T19:41:22.027Z,27.90
2022-10-13T19:43:54.837Z,25.30
2022-10-13T19:46:23.667Z,22.57
2022-10-13T19:48:52.214Z,24.80
2022-10-13T19:51:20.741Z,24.40
2022-10-13T19:53:49.167Z,26.73
2022-10-13T19:56:46.336Z,23.77
2022-10-13T19:59:15.630Z,29.23
2022-10-13T20:01:44.739Z,22.27
2022-10-13T20:04:13.457Z,25.80
2022-10-13T20:06:58.030Z,26.50
2022-10-13T20:09:26.620Z,24.33
2022-10-13T20:11:57.010Z,30.60
2022-10-13T20:14:31.315Z,27.43
2022-10-13T20:16:59.933Z,25.07
2022-10-13T20:19:33.624Z,29.93
2022-10-13T20:22:02.654Z,30.83
2022-10-13T20:24:31.196Z,29.23
2022-10-13T20:27:01.286Z,30.90
2022-10-13T20:29:29.997Z,25.87
2022-10-13T20:31:58.733Z,24.33
2022-10-13T20:34:33.265Z,28.97
2022-10-13T20:37:01.898Z,25.97
2022-10-13T20:39:30.517Z,30.60
2022-10-13T20:42:01.068Z,26.50
2022-10-13T20:44:29.661Z,25.43
2022-10-13T20:46:58.150Z,28.50
2022-10-13T20:49:26.973Z,25.53
2022-10-13T20:51:55.578Z,23.50
2022-10-13T20:54:24.282Z,23.77
2022-10-13T20:56:53.096Z,28.90
2022-10-13T20:59:23.217Z,22.33
2022-10-13T21:01:51.722Z,27.03
2022-10-13T21:04:20.427Z,24.23
2022-10-13T21:06:48.902Z,27.63
2022-10-13T21:09:23.056Z,25.10
2022-10-13T21:11:54.016Z,27.43
2022-10-13T21:14:24.407Z,25.97
2022-10-13T21:16:59.339Z,22.30
2022-10-13T21:19:29.492Z,22.37
2022-10-13T21:21:57.941Z,28.40
2022-10-13T21:24:26.392Z,23.53
2022-10-13T21:26:55.101Z,24.07
2022-10-13T21:29:25.666Z,24.23
2022-10-13T21:31:54.171Z,25.77
2022-10-13T21:34:22.929Z,28.37
2022-10-13T21:36:51.366Z,24.20
2022-10-13T21:39:20.298Z,24.80
2022-10-13T21:41:50.093Z,26.37
2022-10-13T21:44:24.755Z,27.03
2022-10-13T21:47:02.925Z,24.30
2022-10-13T21:49:34.677Z,26.23
2022-10-13T21:52:09.119Z,23.90
2022-10-13T21:54:38.813Z,25.17
2022-10-13T21:57:08.400Z,26.47
2022-10-13T21:59:50.836Z,29.57
2022-10-13T22:02:22.436Z,27.00
2022-10-13T22:04:52.826Z,30.17
2022-10-13T22:07:22.927Z,25.53
2022-10-13T22:09:53.245Z,26.60
2022-10-13T22:12:23.113Z,29.77
2022-10-13T22:14:52.825Z,27.70
2022-10-13T22:17:23.984Z,26.70
2022-10-13T22:19:53.145Z,26.83
2022-10-13T22:22:21.503Z,28.93
2022-10-13T22:24:50.000Z,26.07
2022-10-13T22:27:19.937Z,28.87
2022-10-13T22:29:49.320Z,28.03
2022-10-13T22:32:19.045Z,27.23
2022-10-13T22:34:49.730Z,23.07
2022-10-13T22:37:19.461Z,23.00
2022-10-13T22:39:48.960Z,23.70
2022-10-13T22:42:18.737Z,21.83
2022-10-13T22:44:48.889Z,25.47
2022-10-13T22:47:18.073Z,27.40
2022-10-13T22:49:46.444Z,23.17
2022-10-13T22:52:18.402Z,24.67
2022-10-13T22:54:48.976Z,22.73
2022-10-13T22:57:19.081Z,22.43
2022-10-13T22:59:48.792Z,20.97
2022-10-13T23:02:17.217Z,19.00
2022-10-13T23:04:46.267Z,21.63
2022-10-13T23:07:14.659Z,22.70
2022-10-13T23:09:44.329Z,21.03
2022-10-13T23:12:14.323Z,24.77
2022-10-13T23:14:42.910Z,22.20
2022-10-13T23:17:11.228Z,20.53
2022-10-13T23:19:39.732Z,24.40
2022-10-13T23:22:07.948Z,26.40
2022-10-13T23:24:36.412Z,25.40
2022-10-13T23:27:06.108Z,20.87
2022-10-13T23:29:34.631Z,22.63
2022-10-13T23:32:07.531Z,19.80
2022-10-13T23:34:38.084Z,22.43
2022-10-13T23:37:06.660Z,20.43
2022-10-13T23:39:34.856Z,19.57
2022-10-13T23:42:03.064Z,22.20
2022-10-13T23:44:32.707Z,22.53
2022-10-13T23:47:01.033Z,21.30
2022-10-13T23:49:29.538Z,24.03
2022-10-13T23:51:57.843Z,21.37
2022-10-13T23:54:26.061Z,22.37
2022-10-13T23:56:54.312Z,23.77
2022-10-13T23:59:22.527Z,22.83
